x

Gulf Of Maine - 78 Nm East Of Portsmouth, Nh (44005) Wave Buoy

12:50am - Sun 21st Dec 2014 All times are EST. -5 hours from GMT.

  • Sig Wave height 3.6ft
  • Peak Period 5s
  • Average Period 4s
  • Wind
    20mph, 25mph gusts
  • Sea Temp 48°f
  • Air Temp 34°f
  • Sea Pressure 1025.1mb
  • Gulf Of Maine - 78 Nm East Of Portsmouth, Nh
  • Gulf Of Maine - 78 Nm East Of Portsmouth, Nh

More Historic Weather Station data

Upgrade to MSW Pro to gain access to the past 30 days of data for over 8000 Wavebouys and Weather Stations around the globe.

Join Pro

Comparision Forecast

View Surf forecast
   
Sun 12/21 12:50am 3.5ft 5s 4s 20 25 mph 1025.1mb 48f 34f
Sat 12/20 11:50pm 4ft 4s 4s 20 22 mph 1025.3mb 48f 34f
10:50pm 4ft 4s 4s 20 22 mph 1025.6mb 48f 34f
9:50pm 3.5ft 6s 4s 20 22 mph 1025.9mb 48f 35f
8:50pm 3.5ft 6s 4s 18 20 mph 1025.9mb 48f 35f
7:50pm 3.5ft 6s 4s 18 20 mph 1025.8mb 48f 35f
6:50pm 3.5ft 6s 4s 16 20 mph 1025.7mb 48f 36f
5:50pm 3ft 6s 4s 18 22 mph 1025.4mb 48f 35f
4:50pm 3.5ft 6s 4s 16 20 mph 1025.4mb 48f 35f
3:50pm 3.5ft 6s 4s 13 16 mph 1025.5mb 48f 34f
2:50pm 3.5ft 5s 4s 16 20 mph 1024.9mb 48f 34f
1:50pm 3.5ft 5s 4s 20 25 mph 1024.3mb 48f 33f
12:50pm 3.5ft 5s 4s 20 25 mph 1023.8mb 48f 34f
11:50am 3.5ft 6s 4s 22 27 mph 1023.8mb 48f 35f
10:50am 3.5ft 5s 4s 18 22 mph 1024.8mb 48f 35f
9:50am 3.5ft 5s 4s 13 20 mph 1025.2mb 48f 35f
8:50am 3ft 6s 4s 18 22 mph 1024.2mb 48f 36f
7:50am 3ft 5s 4s 11 16 mph 1023.4mb 48f 37f
6:50am 3ft 5s 4s 16 20 mph 1022.6mb 48f 37f
5:50am 3ft 5s 4s 16 20 mph 1022.1mb 48f 36f
4:50am 3.5ft 5s 4s 16 20 mph 1021.3mb 48f 36f
3:50am 3.5ft 5s 4s 13 18 mph 1021.2mb 48f 35f
2:50am 3.5ft 5s 4s 13 20 mph 1021.2mb 48f 35f
1:50am 3.5ft 5s 4s 18 22 mph 1020.2mb 48f 35f
12:50am 3ft 5s 4s 16 20 mph 1019.5mb 48f 35f
Fri 12/19 11:50pm 3.5ft 5s 4s 16 22 mph 1018.8mb 48f 36f
10:50pm 3.5ft 5s 4s 18 22 mph 1018.6mb 48f 36f
9:50pm 3.5ft 5s 4s 18 20 mph 1018mb 48f 36f
8:50pm 3.5ft 5s 4s 16 20 mph 1017.2mb 48f 36f
7:50pm 3.5ft 5s 4s 20 25 mph 1016.6mb 48f 36f
6:50pm 3.5ft 4s 4s 18 22 mph 1015.9mb 48f 37f
5:50pm 3ft 4s 4s 16 22 mph 1015mb 48f 37f
4:50pm 3ft 4s 4s 16 20 mph 1014.2mb 48f 36f
3:50pm 3.5ft 4s 4s 16 22 mph 1013.8mb 48f 35f
2:50pm 3.5ft 5s 4s 16 25 mph 1013.3mb 48f 36f
1:50pm 3.5ft 5s 4s 16 18 mph 1012.6mb 48f 35f
12:50pm 4ft 5s 4s 16 18 mph 1012mb 48f 35f
11:50am 3.5ft 5s 4s 16 22 mph 1011.9mb 48f 35f
10:50am 3.5ft 5s 4s 18 22 mph 1012mb 48f 35f
9:50am 3.5ft 5s 4s 18 20 mph 1011.8mb 48f 36f
8:50am 4ft 5s 4s 18 22 mph 1011.3mb 48f 37f
7:50am 4.5ft 5s 4s 18 22 mph 1010.6mb 48f 37f
6:50am 4.5ft 5s 4s 20 27 mph 1009.9mb 48f 37f
5:50am  -   -   -  20 25 mph 1009.2mb 48f 37f
4:50am 5ft 5s 4s 20 27 mph 1008.8mb 48f 37f
3:50am 5.5ft 6s 5s 20 27 mph 1008.7mb 48f 37f
2:50am 5ft 5s 5s 22 29 mph 1008.7mb 48f 37f
1:50am 6ft 6s 5s 22 27 mph 1008.4mb 48f 38f
12:50am 6.5ft 6s 5s 25 31 mph 1007.8mb 48f 38f
Thu 12/18 11:50pm 6ft 6s 5s 25 29 mph 1007.6mb 48f 38f
10:50pm 7ft 6s 5s 25 29 mph 1007.5mb 48f 39f
9:50pm 6.5ft 6s 5s 25 31 mph 1007.2mb 48f 39f
8:50pm 6ft 6s 5s 25 29 mph 1006.9mb 48f 39f
7:50pm 6ft 5s 5s 25 29 mph 1006.7mb 48f 40f
6:50pm 7ft 6s 5s 27 31 mph 1006.2mb 48f 41f
5:50pm  -   -   -  29
mph
1005.8mb - 40f
4:50pm 7ft 6s 5s 29 36 mph 1005.3mb 49f 42f
3:50pm 6ft 6s 5s 31 38 mph 1004.5mb 49f 42f
2:50pm 6ft 6s 5s 27 31 mph 1004.2mb 49f 42f
1:50pm 6ft 6s 5s 25 31 mph 1003.8mb 49f 42f
12:50pm 6.5ft 6s 5s 25 31 mph 1003.4mb 49f 41f
11:50am 7ft 6s 5s 27 34 mph 1003.3mb 49f 41f
10:50am 7ft 6s 5s 29 34 mph 1003.2mb 49f 40f
9:50am 7ft 6s 5s 27 34 mph 1003.2mb 49f 40f
8:50am 7ft 6s 5s 29 34 mph 1002.6mb 49f 41f
7:50am 6ft 5s 5s 27 34 mph 1002.1mb 49f 41f
6:50am  -   -   -  18
mph
1002.3mb 49f 40f
5:50am 5ft 7s 5s 20 25 mph 1002.1mb 49f 40f
4:50am 5.5ft 5s 5s 20 22 mph 1001.9mb 49f 40f
3:50am  -   -   -  20 25 mph 1002.1mb 49f 41f
2:50am 6ft 5s 5s 22 29 mph 1002mb 49f 41f
1:50am  -   -   -  25 29 mph 1001.9mb 49f 41f
12:50am 6.5ft 7s 5s 22 27 mph 1001.9mb 49f 41f
Wed 12/17 11:50pm  -   -   -  20
mph
- - 41f
10:50pm 8ft 6s 5s 20 22 mph 1001.9mb 49f 41f
9:50pm 8.5ft 6s 5s 27 31 mph 1001.4mb 49f 42f
8:50pm 8.5ft 6s 5s 29 34 mph 1000.6mb 49f 42f
7:50pm 8ft 9s 6s 31 38 mph 1000.1mb 49f 44f
5:50pm  -   -   -  9 11 mph 999.7mb 49f 48f
4:50pm 7ft 8s 6s 9 11 mph 999.9mb 49f 47f
3:50pm 7.5ft 8s 6s 9 11 mph 1000.3mb 49f 48f
2:50pm 7.5ft 8s 6s 7 9 mph 1000.6mb 49f 49f
1:50pm 7ft 8s 6s 13 16 mph 1001.2mb 49f 50f
12:50pm 7ft 7s 5s 20 25 mph 1001.8mb 49f 49f
11:50am 7.5ft 6s 5s 22 31 mph 1003mb 49f 49f
10:50am 6ft 6s 5s 27 34 mph 1004mb 49f 49f
9:50am 5.5ft 6s 5s 22 29 mph 1005.7mb 49f 49f
8:50am 5ft 6s 4s 25 29 mph 1006.8mb 49f 49f
7:50am 4.5ft 5s 4s 22 29 mph 1007.4mb 49f 49f
6:50am 4ft 5s 4s 20 27 mph 1008.4mb 49f 48f